createdAt,value
2019-05-06T00:00:56.630Z,176.00
2019-05-06T00:01:49.355Z,184.00
2019-05-06T00:02:49.376Z,192.00
2019-05-06T00:03:49.393Z,204.00
2019-05-06T00:04:49.412Z,216.00
2019-05-06T00:05:50.444Z,232.00
2019-05-06T00:06:49.451Z,248.00
2019-05-06T00:07:49.469Z,256.00
2019-05-06T00:08:49.491Z,276.00
2019-05-06T00:09:49.507Z,288.00
2019-05-06T00:10:49.529Z,296.00
2019-05-06T00:11:50.561Z,292.00
2019-05-06T00:12:49.566Z,288.00
2019-05-06T00:13:49.586Z,280.00
2019-05-06T00:14:49.606Z,276.00
2019-05-06T00:15:49.627Z,276.00
2019-05-06T00:16:49.646Z,280.00
2019-05-06T00:17:50.674Z,296.00
2019-05-06T00:18:49.681Z,320.00
2019-05-06T00:19:49.702Z,344.00
2019-05-06T00:20:49.720Z,364.00
2019-05-06T00:21:49.741Z,388.00
2019-05-06T00:22:49.757Z,400.00
2019-05-06T00:23:50.791Z,408.00
2019-05-06T00:24:49.809Z,412.00
2019-05-06T00:25:49.820Z,424.00
2019-05-06T00:26:49.839Z,404.00
2019-05-06T00:27:49.852Z,412.00
2019-05-06T00:28:49.871Z,404.00
2019-05-06T00:29:50.902Z,376.00
2019-05-06T00:30:49.913Z,352.00
2019-05-06T00:31:49.929Z,332.00
2019-05-06T00:32:49.951Z,316.00
2019-05-06T00:33:49.966Z,308.00
2019-05-06T00:34:49.988Z,292.00
2019-05-06T00:35:51.020Z,292.00
2019-05-06T00:36:50.033Z,284.00
2019-05-06T00:37:50.047Z,272.00
2019-05-06T00:38:50.064Z,272.00
2019-05-06T00:39:50.083Z,268.00
2019-05-06T00:40:50.105Z,284.00
2019-05-06T00:41:51.148Z,296.00
2019-05-06T00:42:50.143Z,324.00
2019-05-06T00:43:50.212Z,364.00
2019-05-06T00:44:50.189Z,420.00
2019-05-06T00:45:50.199Z,460.00
2019-05-06T00:46:50.227Z,492.00
2019-05-06T00:47:51.249Z,480.00
2019-05-06T00:48:50.260Z,476.00
2019-05-06T00:49:50.280Z,468.00
2019-05-06T00:50:50.297Z,468.00
2019-05-06T00:51:50.326Z,472.00
2019-05-06T00:52:50.337Z,484.00
2019-05-06T00:53:51.366Z,500.00
2019-05-06T00:54:50.377Z,488.00
2019-05-06T00:55:50.393Z,460.00
2019-05-06T00:56:50.412Z,424.00
2019-05-06T00:57:50.430Z,384.00
2019-05-06T00:58:50.481Z,368.00
2019-05-06T00:59:53.730Z,364.00
2019-05-06T01:00:50.496Z,348.00
2019-05-06T01:01:50.510Z,328.00
2019-05-06T01:02:50.535Z,296.00
2019-05-06T01:03:50.549Z,284.00
2019-05-06T01:04:50.567Z,280.00
2019-05-06T01:05:51.602Z,276.00
2019-05-06T01:06:50.609Z,276.00
2019-05-06T01:07:50.627Z,280.00
2019-05-06T01:08:50.646Z,288.00
2019-05-06T01:09:50.672Z,284.00
2019-05-06T01:10:50.688Z,272.00
2019-05-06T01:11:51.728Z,264.00
2019-05-06T01:12:50.723Z,244.00
2019-05-06T01:13:50.745Z,220.00
2019-05-06T01:14:50.763Z,208.00
2019-05-06T01:15:50.783Z,216.00
2019-05-06T01:16:50.804Z,232.00
2019-05-06T01:17:53.750Z,264.00
2019-05-06T01:18:50.842Z,288.00
2019-05-06T01:19:50.865Z,304.00
2019-05-06T01:20:50.882Z,312.00
2019-05-06T01:21:50.901Z,304.00
2019-05-06T01:22:50.922Z,320.00
2019-05-06T01:23:51.955Z,336.00
2019-05-06T01:24:50.962Z,336.00
2019-05-06T01:25:50.979Z,340.00
2019-05-06T01:26:51.002Z,352.00
2019-05-06T01:27:51.017Z,320.00
2019-05-06T01:28:51.035Z,296.00
2019-05-06T01:29:52.074Z,340.00
2019-05-06T01:30:51.077Z,368.00
2019-05-06T01:31:51.093Z,368.00
2019-05-06T01:32:51.116Z,360.00
2019-05-06T01:33:51.134Z,352.00
2019-05-06T01:34:51.163Z,372.00
2019-05-06T01:35:54.150Z,344.00
2019-05-06T01:36:51.192Z,356.00
2019-05-06T01:37:51.212Z,376.00
2019-05-06T01:38:53.441Z,388.00
2019-05-06T01:39:51.251Z,344.00
2019-05-06T01:40:51.271Z,344.00
2019-05-06T01:41:53.661Z,372.00
2019-05-06T01:42:51.314Z,388.00
2019-05-06T01:43:51.402Z,408.00
2019-05-06T01:44:51.376Z,408.00
2019-05-06T01:45:53.510Z,384.00
2019-05-06T01:46:51.389Z,384.00
2019-05-06T01:47:54.293Z,384.00
2019-05-06T01:48:53.463Z,384.00
2019-05-06T01:49:53.601Z,412.00
2019-05-06T01:50:51.469Z,400.00
2019-05-06T01:51:51.489Z,352.00
2019-05-06T01:52:51.506Z,340.00
2019-05-06T01:53:54.504Z,328.00
2019-05-06T01:54:51.558Z,344.00
2019-05-06T01:55:51.599Z,316.00
2019-05-06T01:56:53.666Z,312.00
2019-05-06T01:57:51.606Z,340.00
2019-05-06T01:58:53.532Z,340.00
2019-05-06T01:59:53.944Z,324.00
2019-05-06T02:00:51.663Z,324.00
2019-05-06T02:01:58.038Z,324.00
2019-05-06T02:02:51.703Z,360.00
2019-05-06T02:03:53.667Z,352.00
2019-05-06T02:04:53.519Z,324.00
2019-05-06T02:05:54.008Z,264.00
2019-05-06T02:06:51.799Z,220.00
2019-05-06T02:07:51.802Z,204.00
2019-05-06T02:08:53.807Z,200.00
2019-05-06T02:09:54.149Z,224.00
2019-05-06T02:10:51.862Z,228.00
2019-05-06T02:11:53.640Z,232.00
2019-05-06T02:12:53.898Z,244.00
2019-05-06T02:13:53.785Z,268.00
2019-05-06T02:14:53.938Z,276.00
2019-05-06T02:15:52.071Z,288.00
2019-05-06T02:16:54.346Z,292.00
2019-05-06T02:17:55.008Z,296.00
2019-05-06T02:18:54.025Z,308.00
2019-05-06T02:19:52.038Z,300.00
2019-05-06T02:20:53.777Z,288.00
2019-05-06T02:21:54.101Z,288.00
2019-05-06T02:22:53.879Z,296.00
2019-05-06T02:23:53.632Z,288.00
2019-05-06T02:24:53.630Z,276.00
2019-05-06T02:25:54.011Z,276.00
2019-05-06T02:26:53.731Z,304.00
2019-05-06T02:27:54.172Z,348.00
2019-05-06T02:28:54.027Z,364.00
2019-05-06T02:29:54.298Z,380.00
2019-05-06T02:30:54.740Z,384.00
2019-05-06T02:31:56.578Z,348.00
2019-05-06T02:32:55.412Z,336.00
2019-05-06T02:33:55.446Z,344.00
2019-05-06T02:34:54.547Z,348.00
2019-05-06T02:35:55.057Z,356.00
2019-05-06T02:36:55.089Z,360.00
2019-05-06T02:37:54.759Z,352.00
2019-05-06T02:38:55.814Z,336.00
2019-05-06T02:39:53.408Z,344.00
2019-05-06T02:40:53.539Z,352.00
2019-05-06T02:41:54.953Z,368.00
2019-05-06T02:42:54.558Z,372.00
2019-05-06T02:43:54.247Z,404.00
2019-05-06T02:44:54.173Z,436.00
2019-05-06T02:45:53.202Z,456.00
2019-05-06T02:46:53.383Z,476.00
2019-05-06T02:47:53.960Z,460.00
2019-05-06T02:48:54.288Z,408.00
2019-05-06T02:49:53.532Z,396.00
2019-05-06T02:50:53.730Z,420.00
2019-05-06T02:51:53.518Z,444.00
2019-05-06T02:52:53.732Z,456.00
2019-05-06T02:53:54.105Z,452.00
2019-05-06T02:54:53.660Z,428.00
2019-05-06T02:55:53.238Z,428.00
2019-05-06T02:56:53.261Z,392.00
2019-05-06T02:57:53.623Z,428.00
2019-05-06T02:58:53.656Z,440.00
2019-05-06T02:59:55.424Z,424.00
2019-05-06T03:00:53.869Z,404.00
2019-05-06T03:01:53.810Z,400.00
2019-05-06T03:02:54.133Z,416.00
2019-05-06T03:03:53.743Z,420.00
2019-05-06T03:04:53.135Z,428.00
2019-05-06T03:05:53.961Z,392.00
2019-05-06T03:06:53.428Z,380.00
2019-05-06T03:07:57.007Z,372.00
2019-05-06T03:08:54.083Z,356.00
2019-05-06T03:09:53.434Z,400.00
2019-05-06T03:10:53.633Z,440.00
2019-05-06T03:11:54.313Z,468.00
2019-05-06T03:12:53.921Z,448.00
2019-05-06T03:13:53.860Z,436.00
2019-05-06T03:14:53.552Z,424.00
2019-05-06T03:15:54.194Z,420.00
2019-05-06T03:16:54.078Z,412.00
2019-05-06T03:17:55.461Z,408.00
2019-05-06T03:18:53.621Z,348.00
2019-05-06T03:19:53.225Z,316.00
2019-05-06T03:20:53.523Z,300.00
2019-05-06T03:21:54.642Z,292.00
2019-05-06T03:22:54.410Z,296.00
2019-05-06T03:23:54.537Z,304.00
2019-05-06T03:24:54.434Z,308.00
2019-05-06T03:25:53.576Z,308.00
2019-05-06T03:26:56.753Z,312.00
2019-05-06T03:27:53.468Z,356.00
2019-05-06T03:28:53.745Z,344.00
2019-05-06T03:29:54.502Z,356.00
2019-05-06T03:30:56.713Z,356.00
2019-05-06T03:31:56.361Z,344.00
2019-05-06T03:33:23.481Z,340.00
2019-05-06T03:34:13.315Z,320.00
2019-05-06T03:35:15.708Z,336.00
2019-05-06T03:36:05.220Z,340.00
2019-05-06T03:36:56.038Z,352.00
2019-05-06T03:37:53.613Z,352.00
2019-05-06T03:38:54.003Z,336.00
2019-05-06T03:39:53.626Z,324.00
2019-05-06T03:40:53.941Z,304.00
2019-05-06T03:41:54.715Z,288.00
2019-05-06T03:42:54.080Z,268.00
2019-05-06T03:43:54.503Z,260.00
2019-05-06T03:44:53.821Z,244.00
2019-05-06T03:45:53.874Z,240.00
2019-05-06T03:46:54.199Z,236.00
2019-05-06T03:47:54.803Z,236.00
2019-05-06T03:48:53.844Z,244.00
2019-05-06T03:49:54.808Z,252.00
2019-05-06T03:50:56.082Z,244.00
2019-05-06T03:51:56.425Z,244.00
2019-05-06T03:52:56.444Z,240.00
2019-05-06T03:53:56.719Z,232.00
2019-05-06T03:54:54.008Z,224.00
2019-05-06T03:55:54.178Z,216.00
2019-05-06T03:56:53.987Z,212.00
2019-05-06T03:57:54.050Z,216.00
2019-05-06T03:58:54.033Z,220.00
2019-05-06T03:59:55.039Z,240.00
2019-05-06T04:00:54.055Z,268.00
2019-05-06T04:01:54.078Z,284.00
2019-05-06T04:02:54.135Z,300.00
2019-05-06T04:03:57.253Z,304.00
2019-05-06T04:04:56.776Z,304.00
2019-05-06T04:05:55.882Z,304.00
2019-05-06T04:06:54.199Z,312.00
2019-05-06T04:07:54.179Z,304.00
2019-05-06T04:08:54.239Z,284.00
2019-05-06T04:09:54.257Z,304.00
2019-05-06T04:10:54.252Z,328.00
2019-05-06T04:11:55.271Z,352.00
2019-05-06T04:12:54.283Z,388.00
2019-05-06T04:13:54.320Z,420.00
2019-05-06T04:14:54.451Z,456.00
2019-05-06T04:15:54.344Z,508.00
2019-05-06T04:16:54.377Z,540.00
2019-05-06T04:17:55.392Z,560.00
2019-05-06T04:18:54.468Z,516.00
2019-05-06T04:19:54.462Z,464.00
2019-05-06T04:20:54.439Z,440.00
2019-05-06T04:21:54.473Z,444.00
2019-05-06T04:22:54.509Z,452.00
2019-05-06T04:23:55.508Z,448.00
2019-05-06T04:24:54.523Z,444.00
2019-05-06T04:25:54.539Z,432.00
2019-05-06T04:26:54.601Z,408.00
2019-05-06T04:27:54.607Z,400.00
2019-05-06T04:28:54.597Z,404.00
2019-05-06T04:29:55.627Z,396.00
2019-05-06T04:30:55.003Z,396.00
2019-05-06T04:31:54.656Z,420.00
2019-05-06T04:32:54.694Z,464.00
2019-05-06T04:34:08.850Z,500.00
2019-05-06T04:34:54.886Z,476.00
2019-05-06T04:35:55.777Z,440.00
2019-05-06T04:36:54.765Z,424.00
2019-05-06T04:37:54.784Z,420.00
2019-05-06T04:38:54.812Z,448.00
2019-05-06T04:39:54.872Z,464.00
2019-05-06T04:40:54.847Z,496.00
2019-05-06T04:41:55.883Z,516.00
2019-05-06T04:42:54.875Z,496.00
2019-05-06T04:43:54.901Z,488.00
2019-05-06T04:44:54.925Z,468.00
2019-05-06T04:45:54.947Z,452.00
2019-05-06T04:46:54.964Z,440.00
2019-05-06T04:47:55.987Z,432.00
2019-05-06T04:48:55.069Z,436.00
2019-05-06T04:49:55.170Z,448.00
2019-05-06T04:50:55.036Z,456.00
2019-05-06T04:51:55.118Z,468.00
2019-05-06T04:52:55.180Z,484.00
2019-05-06T04:53:56.135Z,508.00
2019-05-06T04:54:55.127Z,512.00
2019-05-06T04:55:55.176Z,520.00
2019-05-06T04:56:55.157Z,480.00
2019-05-06T04:57:55.221Z,436.00
2019-05-06T04:58:55.202Z,416.00
2019-05-06T04:59:56.335Z,392.00
2019-05-06T05:00:55.252Z,372.00
2019-05-06T05:01:55.255Z,380.00
2019-05-06T05:02:55.278Z,392.00
2019-05-06T05:03:55.294Z,424.00
2019-05-06T05:04:55.316Z,448.00
2019-05-06T05:05:56.362Z,456.00
2019-05-06T05:06:55.362Z,480.00
2019-05-06T05:07:55.378Z,444.00
2019-05-06T05:08:55.447Z,416.00
2019-05-06T05:09:55.416Z,392.00
2019-05-06T05:10:55.438Z,400.00
2019-05-06T05:11:56.495Z,412.00
2019-05-06T05:12:55.495Z,428.00
2019-05-06T05:13:55.505Z,440.00
2019-05-06T05:14:55.521Z,432.00
2019-05-06T05:15:55.539Z,392.00
2019-05-06T05:16:55.569Z,360.00
2019-05-06T05:17:56.590Z,404.00
2019-05-06T05:18:55.631Z,468.00
2019-05-06T05:19:55.637Z,536.00
2019-05-06T05:20:55.638Z,568.00
2019-05-06T05:21:55.672Z,592.00
2019-05-06T05:22:55.679Z,584.00
2019-05-06T05:23:56.708Z,572.00
2019-05-06T05:24:55.730Z,564.00
2019-05-06T05:25:55.778Z,568.00
2019-05-06T05:26:55.808Z,572.00
2019-05-06T05:27:55.837Z,552.00
2019-05-06T05:28:55.832Z,560.00
2019-05-06T05:29:56.838Z,596.00
2019-05-06T05:30:55.842Z,580.00
2019-05-06T05:31:55.894Z,616.00
2019-05-06T05:32:55.978Z,700.00
2019-05-06T05:33:55.920Z,732.00
2019-05-06T05:34:55.926Z,740.00
2019-05-06T05:35:56.950Z,832.00
2019-05-06T05:36:55.959Z,928.00
2019-05-06T05:37:55.994Z,904.00
2019-05-06T05:38:56.019Z,928.00
2019-05-06T05:39:56.035Z,952.00
2019-05-06T05:40:56.052Z,996.00
2019-05-06T05:41:57.102Z,1020.00
2019-05-06T05:42:56.079Z,888.00
2019-05-06T05:43:56.120Z,780.00
2019-05-06T05:44:56.118Z,716.00
2019-05-06T05:45:56.146Z,672.00
2019-05-06T05:46:56.159Z,676.00
2019-05-06T05:47:57.190Z,672.00
2019-05-06T05:48:56.209Z,696.00
2019-05-06T05:49:56.219Z,720.00
2019-05-06T05:50:56.274Z,772.00
2019-05-06T05:51:56.271Z,776.00
2019-05-06T05:52:56.280Z,720.00
2019-05-06T05:53:57.334Z,716.00
2019-05-06T05:54:56.321Z,708.00
2019-05-06T05:55:56.340Z,752.00
2019-05-06T05:56:56.464Z,892.00
2019-05-06T05:57:56.383Z,1108.00
2019-05-06T05:58:56.406Z,1268.00
2019-05-06T05:59:57.476Z,1308.00
2019-05-06T06:00:56.443Z,1240.00
2019-05-06T06:01:57.388Z,1120.00
2019-05-06T06:02:56.483Z,1076.00
2019-05-06T06:03:56.516Z,1076.00
2019-05-06T06:04:57.699Z,1104.00
2019-05-06T06:05:57.557Z,1120.00
2019-05-06T06:06:56.566Z,1168.00
2019-05-06T06:07:56.595Z,1116.00
2019-05-06T06:08:56.606Z,1076.00
2019-05-06T06:09:56.662Z,1068.00
2019-05-06T06:10:56.649Z,1036.00
2019-05-06T06:11:57.686Z,968.00
2019-05-06T06:12:56.693Z,936.00
2019-05-06T06:13:56.708Z,1008.00
2019-05-06T06:14:56.751Z,1084.00
2019-05-06T06:15:56.792Z,1088.00
2019-05-06T06:16:56.816Z,1104.00
2019-05-06T06:17:57.832Z,1076.00
2019-05-06T06:18:56.811Z,1228.00
2019-05-06T06:19:56.830Z,1304.00
2019-05-06T06:20:56.851Z,1300.00
2019-05-06T06:21:56.871Z,1244.00
2019-05-06T06:22:56.918Z,1248.00
2019-05-06T06:23:57.935Z,1252.00
2019-05-06T06:24:56.934Z,1364.00
2019-05-06T06:25:56.955Z,1336.00
2019-05-06T06:26:56.977Z,1272.00
2019-05-06T06:27:56.994Z,1244.00
2019-05-06T06:28:57.068Z,1236.00
2019-05-06T06:29:58.051Z,1252.00
2019-05-06T06:30:57.059Z,1272.00
2019-05-06T06:31:57.096Z,1296.00
2019-05-06T06:32:57.248Z,1248.00
2019-05-06T06:33:57.120Z,1212.00
2019-05-06T06:35:08.344Z,1196.00
2019-05-06T06:35:58.197Z,1148.00
2019-05-06T06:36:57.204Z,1064.00
2019-05-06T06:37:57.494Z,1000.00
2019-05-06T06:38:57.224Z,1008.00
2019-05-06T06:39:57.316Z,1120.00
2019-05-06T06:40:57.285Z,1268.00
2019-05-06T06:41:58.297Z,1320.00
2019-05-06T06:42:57.306Z,1332.00
2019-05-06T06:43:57.337Z,1332.00
2019-05-06T06:44:57.385Z,1312.00
2019-05-06T06:45:57.368Z,1312.00
2019-05-06T06:46:57.483Z,1244.00
2019-05-06T06:47:58.421Z,1160.00
2019-05-06T06:48:57.465Z,1036.00
2019-05-06T06:49:57.453Z,1004.00
2019-05-06T06:50:57.472Z,996.00
2019-05-06T06:51:57.496Z,1024.00
2019-05-06T06:52:57.515Z,1056.00
2019-05-06T06:53:58.551Z,956.00
2019-05-06T06:54:57.583Z,948.00
2019-05-06T06:55:57.580Z,912.00
2019-05-06T06:57:06.209Z,852.00
2019-05-06T06:57:57.634Z,884.00
2019-05-06T06:58:57.642Z,856.00
2019-05-06T06:59:58.680Z,944.00
2019-05-06T07:00:57.683Z,1036.00
2019-05-06T07:01:57.724Z,1064.00
2019-05-06T07:02:57.799Z,1088.00
2019-05-06T07:03:57.773Z,1072.00
2019-05-06T07:04:57.765Z,980.00
2019-05-06T07:05:58.796Z,900.00
2019-05-06T07:06:57.805Z,836.00
2019-05-06T07:07:57.825Z,764.00
2019-05-06T07:08:57.847Z,744.00
2019-05-06T07:09:57.884Z,748.00
2019-05-06T07:10:58.554Z,752.00
2019-05-06T07:11:58.921Z,748.00
2019-05-06T07:12:57.932Z,716.00
2019-05-06T07:13:57.954Z,660.00
2019-05-06T07:14:57.990Z,652.00
2019-05-06T07:15:58.004Z,676.00
2019-05-06T07:16:58.020Z,764.00
2019-05-06T07:17:59.050Z,848.00
2019-05-06T07:18:58.059Z,828.00
2019-05-06T07:19:58.077Z,704.00
2019-05-06T07:20:58.098Z,608.00
2019-05-06T07:21:58.137Z,552.00
2019-05-06T07:22:58.144Z,488.00
2019-05-06T07:23:59.176Z,416.00
2019-05-06T07:24:58.185Z,388.00
2019-05-06T07:25:58.207Z,400.00
2019-05-06T07:26:58.229Z,436.00
2019-05-06T07:27:58.246Z,464.00
2019-05-06T07:28:58.308Z,484.00
2019-05-06T07:29:59.367Z,480.00
2019-05-06T07:31:14.901Z,440.00
2019-05-06T07:31:58.470Z,412.00
2019-05-06T07:33:00.609Z,344.00
2019-05-06T07:33:58.374Z,288.00
2019-05-06T07:34:58.412Z,288.00
2019-05-06T07:35:59.460Z,340.00
2019-05-06T07:36:58.579Z,380.00
2019-05-06T07:37:58.491Z,416.00
2019-05-06T07:38:58.641Z,484.00
2019-05-06T07:39:58.580Z,560.00
2019-05-06T07:40:58.681Z,580.00
2019-05-06T07:41:59.555Z,612.00
2019-05-06T07:42:58.564Z,680.00
2019-05-06T07:43:58.590Z,732.00
2019-05-06T07:44:58.605Z,680.00
2019-05-06T07:45:58.630Z,628.00
2019-05-06T07:46:58.647Z,684.00
2019-05-06T07:47:59.680Z,764.00
2019-05-06T07:48:58.697Z,808.00
2019-05-06T07:49:58.709Z,724.00
2019-05-06T07:50:58.732Z,708.00
2019-05-06T07:51:58.778Z,716.00
2019-05-06T07:52:58.772Z,780.00
2019-05-06T07:53:59.806Z,844.00
2019-05-06T07:54:58.816Z,824.00
2019-05-06T07:55:58.837Z,828.00
2019-05-06T07:56:58.857Z,744.00
2019-05-06T07:57:58.878Z,732.00
2019-05-06T07:58:58.899Z,728.00
2019-05-06T07:59:59.932Z,804.00
2019-05-06T08:00:58.945Z,752.00
2019-05-06T08:01:58.963Z,624.00
2019-05-06T08:02:58.986Z,440.00
2019-05-06T08:03:59.003Z,316.00
2019-05-06T08:04:59.025Z,264.00
2019-05-06T08:06:02.512Z,212.00
2019-05-06T08:06:59.157Z,180.00
2019-05-06T08:07:59.089Z,152.00
2019-05-06T08:08:59.115Z,132.00
2019-05-06T08:09:59.132Z,112.00
2019-05-06T08:10:59.157Z,92.00
2019-05-06T08:12:02.638Z,84.00
2019-05-06T08:12:59.215Z,80.00
2019-05-06T08:13:59.217Z,76.00
2019-05-06T08:14:59.240Z,80.00
2019-05-06T08:15:59.259Z,80.00
2019-05-06T08:16:59.280Z,92.00
2019-05-06T08:18:00.315Z,96.00
2019-05-06T08:18:59.335Z,100.00
2019-05-06T08:19:59.340Z,104.00
2019-05-06T08:20:59.363Z,112.00
2019-05-06T08:21:59.387Z,112.00
2019-05-06T08:22:59.410Z,112.00
2019-05-06T08:24:02.616Z,108.00
2019-05-06T08:24:59.446Z,108.00
2019-05-06T08:26:10.002Z,112.00
2019-05-06T08:26:59.780Z,132.00
2019-05-06T08:27:59.510Z,144.00
2019-05-06T08:28:59.535Z,136.00
2019-05-06T08:30:02.393Z,136.00
2019-05-06T08:30:59.572Z,140.00
2019-05-06T08:31:59.599Z,136.00
2019-05-06T08:32:59.616Z,128.00
2019-05-06T08:33:59.637Z,116.00
2019-05-06T08:34:59.662Z,100.00
2019-05-06T08:36:08.822Z,104.00
2019-05-06T08:36:59.701Z,112.00
2019-05-06T08:37:59.720Z,112.00
2019-05-06T08:39:02.772Z,104.00
2019-05-06T08:39:59.759Z,100.00
2019-05-06T08:40:59.785Z,104.00
2019-05-06T08:42:02.704Z,112.00
2019-05-06T08:43:02.053Z,124.00
2019-05-06T08:44:02.374Z,140.00
2019-05-06T08:45:02.090Z,140.00
2019-05-06T08:45:59.891Z,144.00
2019-05-06T08:46:59.915Z,144.00
2019-05-06T08:48:02.825Z,132.00
2019-05-06T08:48:59.949Z,128.00
2019-05-06T08:50:02.210Z,128.00
2019-05-06T08:51:02.536Z,140.00
2019-05-06T08:52:02.240Z,156.00
2019-05-06T08:53:00.033Z,168.00
2019-05-06T08:54:03.097Z,184.00
2019-05-06T08:55:02.348Z,196.00
2019-05-06T08:56:01.891Z,192.00
2019-05-06T08:57:00.123Z,188.00
2019-05-06T08:58:02.729Z,176.00
2019-05-06T08:59:00.161Z,160.00
2019-05-06T09:00:03.461Z,144.00
2019-05-06T09:01:02.709Z,132.00
2019-05-06T09:02:00.249Z,124.00
2019-05-06T09:03:00.241Z,124.00
2019-05-06T09:04:09.521Z,128.00
2019-05-06T09:05:02.736Z,124.00
2019-05-06T09:06:03.134Z,128.00
2019-05-06T09:07:02.755Z,144.00
2019-05-06T09:08:00.345Z,156.00
2019-05-06T09:09:02.454Z,152.00
2019-05-06T09:10:02.609Z,152.00
2019-05-06T09:11:02.961Z,156.00
2019-05-06T09:12:02.658Z,164.00
2019-05-06T09:13:01.996Z,184.00
2019-05-06T09:14:03.187Z,184.00
2019-05-06T09:15:00.495Z,188.00
2019-05-06T09:16:02.484Z,196.00
2019-05-06T09:17:02.609Z,196.00
2019-05-06T09:18:02.993Z,200.00
2019-05-06T09:19:04.375Z,188.00
2019-05-06T09:20:02.713Z,156.00
2019-05-06T09:21:02.832Z,132.00
2019-05-06T09:22:02.519Z,124.00
2019-05-06T09:23:04.238Z,136.00
2019-05-06T09:24:02.281Z,148.00
2019-05-06T09:25:02.488Z,160.00
2019-05-06T09:26:02.641Z,168.00
2019-05-06T09:27:02.833Z,172.00
2019-05-06T09:28:02.558Z,164.00
2019-05-06T09:29:02.279Z,172.00
2019-05-06T09:30:02.979Z,168.00
2019-05-06T09:31:02.247Z,144.00
2019-05-06T09:32:01.781Z,132.00
2019-05-06T09:33:02.621Z,128.00
2019-05-06T09:34:02.721Z,124.00
2019-05-06T09:35:02.907Z,132.00
2019-05-06T09:36:03.292Z,144.00
2019-05-06T09:37:03.433Z,140.00
2019-05-06T09:38:02.188Z,136.00
2019-05-06T09:39:02.297Z,132.00
2019-05-06T09:40:02.780Z,128.00
2019-05-06T09:41:04.798Z,104.00
2019-05-06T09:42:02.319Z,80.00
2019-05-06T09:43:04.655Z,68.00
2019-05-06T09:44:03.069Z,60.00
2019-05-06T09:45:02.243Z,56.00
2019-05-06T09:46:02.385Z,60.00
2019-05-06T09:47:02.423Z,64.00
2019-05-06T09:48:03.736Z,64.00
2019-05-06T09:49:03.304Z,64.00
2019-05-06T09:50:02.804Z,56.00
2019-05-06T09:51:02.946Z,60.00
2019-05-06T09:52:02.487Z,64.00
2019-05-06T09:53:02.500Z,64.00
2019-05-06T09:54:04.093Z,64.00
2019-05-06T09:55:03.243Z,56.00
2019-05-06T09:56:03.431Z,44.00
2019-05-06T09:57:02.378Z,32.00
2019-05-06T09:58:03.422Z,32.00
2019-05-06T09:59:02.238Z,36.00
2019-05-06T10:00:04.543Z,36.00
2019-05-06T10:01:02.652Z,32.00
2019-05-06T10:02:01.465Z,28.00
2019-05-06T10:03:03.098Z,24.00
2019-05-06T10:04:03.265Z,20.00
2019-05-06T10:05:03.516Z,20.00
2019-05-06T10:06:02.942Z,16.00
2019-05-06T10:07:02.662Z,16.00
2019-05-06T10:08:03.302Z,12.00
2019-05-06T10:09:04.718Z,8.00
2019-05-06T10:10:01.654Z,12.00
2019-05-06T10:11:03.172Z,12.00
2019-05-06T10:12:02.683Z,12.00
2019-05-06T10:13:02.709Z,12.00
2019-05-06T10:14:02.983Z,12.00
2019-05-06T10:15:03.279Z,16.00
2019-05-06T10:16:03.063Z,16.00
2019-05-06T10:17:04.392Z,20.00
2019-05-06T10:18:04.465Z,20.00
2019-05-06T10:19:02.537Z,20.00
2019-05-06T10:20:02.878Z,20.00
2019-05-06T10:21:01.859Z,20.00
2019-05-06T10:22:03.545Z,20.00
2019-05-06T10:23:02.811Z,20.00
2019-05-06T10:24:02.955Z,20.00
2019-05-06T10:25:03.641Z,16.00
2019-05-06T10:26:04.519Z,12.00
2019-05-06T10:27:02.630Z,12.00
2019-05-06T10:28:02.860Z,12.00
2019-05-06T10:29:02.437Z,12.00
2019-05-06T10:30:03.454Z,16.00
2019-05-06T10:31:02.234Z,16.00
2019-05-06T10:32:02.115Z,12.00
2019-05-06T10:33:02.275Z,12.00
2019-05-06T10:34:03.027Z,16.00
2019-05-06T10:35:02.794Z,12.00
2019-05-06T10:36:03.180Z,16.00
2019-05-06T10:37:14.645Z,16.00
2019-05-06T10:38:02.964Z,16.00
2019-05-06T10:39:02.403Z,16.00
2019-05-06T10:40:03.096Z,20.00
2019-05-06T10:41:06.665Z,20.00
2019-05-06T10:42:03.294Z,24.00
2019-05-06T10:43:02.771Z,20.00
2019-05-06T10:44:03.016Z,20.00
2019-05-06T10:45:02.344Z,20.00
2019-05-06T10:46:04.124Z,20.00
2019-05-06T10:47:02.944Z,20.00
2019-05-06T10:48:03.426Z,16.00
2019-05-06T10:49:02.712Z,16.00
2019-05-06T10:50:02.453Z,12.00
2019-05-06T10:51:03.574Z,16.00
2019-05-06T10:52:02.490Z,16.00
2019-05-06T10:53:02.829Z,12.00
2019-05-06T10:54:03.545Z,12.00
2019-05-06T10:55:03.330Z,8.00
2019-05-06T10:56:02.568Z,8.00
2019-05-06T10:57:02.592Z,4.00
2019-05-06T10:58:02.878Z,8.00
2019-05-06T10:59:02.632Z,8.00
2019-05-06T11:00:03.672Z,4.00
2019-05-06T11:01:03.617Z,4.00
2019-05-06T11:02:05.423Z,8.00
2019-05-06T11:03:02.714Z,4.00
2019-05-06T11:04:02.950Z,4.00
2019-05-06T11:05:02.983Z,4.00
2019-05-06T11:06:03.794Z,4.00
2019-05-06T11:07:04.023Z,4.00
2019-05-06T11:08:02.836Z,4.00
2019-05-06T11:09:03.297Z,4.00
2019-05-06T11:10:02.974Z,4.00
2019-05-06T11:11:14.920Z,0.00
2019-05-06T11:12:03.907Z,0.00
2019-05-06T11:13:03.535Z,4.00
2019-05-06T11:14:03.229Z,4.00
2019-05-06T11:15:03.653Z,4.00
2019-05-06T11:16:03.519Z,4.00
2019-05-06T11:17:05.123Z,0.00
2019-05-06T11:18:04.870Z,0.00
2019-05-06T11:19:05.130Z,0.00
2019-05-06T11:20:06.375Z,4.00
2019-05-06T11:21:03.601Z,4.00
2019-05-06T11:22:03.811Z,0.00
2019-05-06T11:23:03.120Z,0.00
2019-05-06T11:24:06.238Z,0.00
2019-05-06T11:25:03.373Z,0.00
2019-05-06T11:26:03.329Z,0.00
2019-05-06T11:27:03.636Z,0.00
2019-05-06T11:28:03.251Z,0.00
2019-05-06T11:29:05.029Z,0.00
2019-05-06T11:30:04.272Z,0.00
2019-05-06T11:31:03.281Z,0.00
2019-05-06T11:32:03.306Z,0.00
2019-05-06T11:33:04.740Z,0.00
2019-05-06T11:34:03.362Z,0.00
2019-05-06T11:35:03.897Z,0.00
2019-05-06T11:36:04.420Z,0.00
2019-05-06T11:37:03.426Z,0.00
2019-05-06T11:38:03.423Z,0.00
2019-05-06T11:39:03.444Z,0.00
2019-05-06T11:40:03.464Z,0.00
2019-05-06T11:41:03.488Z,0.00
2019-05-06T11:42:23.798Z,0.00
2019-05-06T11:43:03.525Z,0.00
2019-05-06T11:44:03.543Z,0.00
2019-05-06T11:45:03.567Z,0.00
2019-05-06T11:46:03.592Z,0.00
2019-05-06T11:47:03.605Z,0.00
2019-05-06T11:48:04.637Z,0.00
2019-05-06T11:49:03.690Z,0.00
2019-05-06T11:50:05.128Z,0.00
2019-05-06T11:51:03.686Z,0.00
2019-05-06T11:52:03.728Z,0.00
2019-05-06T11:53:03.775Z,0.00
2019-05-06T11:54:16.345Z,0.00
2019-05-06T11:55:03.773Z,0.00
2019-05-06T11:56:03.810Z,0.00
2019-05-06T11:57:03.811Z,0.00
2019-05-06T11:58:03.829Z,0.00
2019-05-06T11:59:03.852Z,0.00
2019-05-06T12:00:04.882Z,0.00
2019-05-06T12:01:03.885Z,0.00
2019-05-06T12:02:03.914Z,0.00
2019-05-06T12:03:03.931Z,0.00
2019-05-06T12:04:03.952Z,0.00
2019-05-06T12:05:03.968Z,0.00
2019-05-06T12:06:05.001Z,0.00
2019-05-06T12:07:11.195Z,0.00
2019-05-06T12:08:08.098Z,0.00
2019-05-06T12:09:06.331Z,0.00
2019-05-06T12:10:04.072Z,0.00
2019-05-06T12:11:04.090Z,0.00
2019-05-06T12:12:05.127Z,0.00
2019-05-06T12:13:04.131Z,0.00
2019-05-06T12:14:04.152Z,0.00
2019-05-06T12:15:07.125Z,0.00
2019-05-06T12:16:04.196Z,0.00
2019-05-06T12:17:04.210Z,0.00
2019-05-06T12:18:05.255Z,0.00
2019-05-06T12:19:04.255Z,0.00
2019-05-06T12:20:04.270Z,0.00
2019-05-06T12:21:11.334Z,0.00
2019-05-06T12:22:04.316Z,0.00
2019-05-06T12:23:04.829Z,0.00
2019-05-06T12:24:05.365Z,0.00
2019-05-06T12:25:04.677Z,0.00
2019-05-06T12:26:04.395Z,0.00
2019-05-06T12:27:04.415Z,0.00
2019-05-06T12:28:04.431Z,0.00
2019-05-06T12:29:04.470Z,0.00
2019-05-06T12:30:05.583Z,0.00
2019-05-06T12:31:04.497Z,0.00
2019-05-06T12:32:04.516Z,0.00
2019-05-06T12:33:04.536Z,0.00
2019-05-06T12:34:04.555Z,0.00
2019-05-06T12:35:04.576Z,0.00
2019-05-06T12:36:05.603Z,0.00